Terminal Aerodrome Forecast
Issued by NWS Portland, OR

Home | Current Version | Previous Version | Text Only | Print | Product List | Glossary On
Versions: 1 2 3 4 5 6 7 8 9 10 11 12 13 14 15 16 17 18 19 20 21 22 23 24 25 26 27 28 29 30 31 32
000
FTUS46 KPQR 211918 AAB
TAFTTD
TAF AMD
KTTD 211918Z 2119/2218 09022G27KT P6SM FEW045 BKN060 OVC080
      WS015/18030KT
     FM212200 10012G21KT 4SM RA BR BKN022 OVC035
     FM220400 11010KT 4SM -RA BR BKN020 OVC035
     FM220800 21007KT 4SM -RA BR BKN018 OVC035=

USA.gov is the U.S. government's official web portal to all federal, state and local government web resources and services.